ROMMA est une association bénévole à but non lucratif. Votre soutien est indispensable : ADHERER à ROMMA ou FAIRE un DON

Granges-lès-Beaumont - (26, Drôme)

Drôme des Collines (155 m)   Longitude: 04°58'E   Latitude: 45°03'N Station partenaire n°123
 

Détail journalier du     <<     >>

Température Precipitation Humidité Pression Vent Dir Rafale Dir. rafale Ensol.
Heure (°C) (mm) (%) (hPa) (km/h) (km/h) (min)
01:00 8.209010167N16N0
02:00 8.209010176N13NNE0
03:00 8.009110173N8N0
04:00 7.409210175ENE11ENE0
05:00 8.109210172NNE11NNO0
06:00 8.708810179N15NNE0
07:00 8.1088101812NNO27NNO0
08:00 7.6088101814NNO29N0
09:00 7.4087101915NNO29NNO0
10:00 7.3087102019NNO32NNO0
11:00 7.0088102019NNO32NNO0
12:00 6.9087102021NNO40N0
13:00 7.2086102020NNO34NNO0
14:00 6.7085102023NNO39ONO0
15:00 6.1086102024NNO39N0
16:00 5.9085102125NNO47N0
17:00 5.4085102127NNO48NNO0
18:00 5.4084102127NNO47ONO0
19:00 5.1083102227NNO48NNO0
20:00 4.9082102224NO42NNO0
21:00 4.8080102225NO44NNO0
22:00 4.6080102224NO42ONO0
23:00 4.3079102325NNO42N0
minuit 4.1079102321NNO39N0

Graphique du 02-12-2019

 

Serveur OMMA